createdAt,value
2023-05-09T00:02:13.374Z,1.30
2023-05-09T00:04:56.979Z,1.73
2023-05-09T00:07:40.142Z,1.30
2023-05-09T00:10:23.350Z,1.55
2023-05-09T00:13:07.272Z,1.50
2023-05-09T00:15:54.090Z,1.58
2023-05-09T00:18:37.632Z,1.50
2023-05-09T00:21:20.689Z,1.67
2023-05-09T00:24:03.968Z,1.70
2023-05-09T00:26:47.037Z,1.55
2023-05-09T00:29:30.072Z,1.60
2023-05-09T00:32:14.809Z,1.70
2023-05-09T00:34:57.893Z,1.50
2023-05-09T00:37:41.272Z,1.75
2023-05-09T00:40:24.309Z,1.42
2023-05-09T00:43:07.672Z,1.90
2023-05-09T00:45:51.101Z,1.77
2023-05-09T00:48:36.055Z,1.67
2023-05-09T00:51:19.392Z,1.55
2023-05-09T00:54:02.477Z,1.70
2023-05-09T00:56:45.786Z,1.70
2023-05-09T00:59:28.868Z,1.70
2023-05-09T01:02:12.755Z,1.55
2023-05-09T01:04:57.448Z,1.77
2023-05-09T01:07:44.926Z,1.77
2023-05-09T01:10:33.051Z,1.88
2023-05-09T01:13:20.113Z,1.85
2023-05-09T01:16:08.896Z,1.88
2023-05-09T01:18:58.923Z,1.80
2023-05-09T01:21:45.743Z,1.70
2023-05-09T01:24:48.102Z,1.60
2023-05-09T01:27:38.822Z,1.92
2023-05-09T01:30:25.214Z,1.48
2023-05-09T01:33:09.244Z,1.80
2023-05-09T01:35:53.759Z,1.80
2023-05-09T01:38:38.790Z,1.50
2023-05-09T01:41:22.631Z,2.00
2023-05-09T01:44:07.747Z,1.63
2023-05-09T01:46:55.893Z,1.83
2023-05-09T01:49:40.210Z,1.73
2023-05-09T01:52:24.079Z,2.08
2023-05-09T01:55:07.969Z,1.80
2023-05-09T01:57:51.263Z,1.70
2023-05-09T02:00:34.694Z,1.90
2023-05-09T02:03:19.357Z,1.80
2023-05-09T02:06:02.194Z,1.90
2023-05-09T02:08:45.557Z,2.20
2023-05-09T02:11:28.220Z,1.92
2023-05-09T02:14:10.919Z,1.98
2023-05-09T02:16:53.654Z,2.08
2023-05-09T02:19:37.773Z,2.25
2023-05-09T02:22:20.456Z,1.98
2023-05-09T02:25:04.967Z,1.75
2023-05-09T02:27:48.978Z,2.20
2023-05-09T02:30:34.443Z,1.95
2023-05-09T02:33:17.481Z,2.10
2023-05-09T02:36:01.898Z,1.83
2023-05-09T02:38:45.481Z,2.10
2023-05-09T02:41:28.648Z,2.00
2023-05-09T02:44:11.230Z,1.80
2023-05-09T02:46:53.821Z,1.98
2023-05-09T02:49:36.448Z,2.17
2023-05-09T02:52:21.734Z,2.05
2023-05-09T02:55:04.820Z,1.95
2023-05-09T02:57:58.946Z,2.28
2023-05-09T03:00:47.511Z,2.30
2023-05-09T03:03:33.890Z,2.20
2023-05-09T03:06:18.934Z,1.90
2023-05-09T03:09:02.919Z,2.20
2023-05-09T03:11:46.648Z,1.95
2023-05-09T03:14:29.311Z,2.22
2023-05-09T03:17:12.238Z,2.40
2023-05-09T03:19:55.026Z,2.13
2023-05-09T03:22:37.618Z,2.38
2023-05-09T03:25:24.528Z,2.30
2023-05-09T03:28:38.635Z,2.13
2023-05-09T03:31:22.594Z,2.30
2023-05-09T03:34:05.377Z,2.30
2023-05-09T03:36:48.218Z,2.33
2023-05-09T03:39:31.438Z,2.10
2023-05-09T03:42:15.581Z,2.33
2023-05-09T03:45:01.206Z,2.10
2023-05-09T03:47:44.755Z,2.20
2023-05-09T03:50:28.475Z,2.53
2023-05-09T03:53:13.762Z,2.10
2023-05-09T03:55:57.591Z,2.30
2023-05-09T03:58:43.070Z,2.53
2023-05-09T04:01:27.127Z,2.30
2023-05-09T04:04:11.908Z,2.17
2023-05-09T04:06:54.628Z,2.70
2023-05-09T04:09:37.402Z,2.30
2023-05-09T04:12:20.093Z,2.33
2023-05-09T04:15:05.083Z,2.63
2023-05-09T04:17:47.877Z,2.15
2023-05-09T04:20:31.221Z,2.38
2023-05-09T04:23:13.861Z,2.20
2023-05-09T04:25:56.887Z,2.30
2023-05-09T04:28:40.517Z,2.17
2023-05-09T04:31:26.356Z,2.58
2023-05-09T04:34:09.228Z,2.50
2023-05-09T04:36:53.767Z,2.30
2023-05-09T04:39:36.691Z,2.38
2023-05-09T04:42:28.605Z,2.33
2023-05-09T04:45:12.376Z,2.50
2023-05-09T04:47:56.907Z,2.40
2023-05-09T04:50:39.624Z,2.88
2023-05-09T04:53:22.229Z,2.55
2023-05-09T04:56:05.069Z,2.40
2023-05-09T04:58:51.486Z,2.85
2023-05-09T05:01:34.624Z,2.58
2023-05-09T05:04:18.957Z,2.65
2023-05-09T05:07:01.646Z,2.30
2023-05-09T05:09:44.654Z,2.63
2023-05-09T05:12:27.421Z,2.78
2023-05-09T05:15:11.115Z,2.63
2023-05-09T05:17:54.639Z,2.78
2023-05-09T05:20:43.099Z,2.90
2023-05-09T05:23:27.114Z,2.60
2023-05-09T05:26:10.915Z,2.40
2023-05-09T05:28:55.606Z,2.60
2023-05-09T05:31:38.605Z,2.33
2023-05-09T05:34:21.258Z,2.55
2023-05-09T05:37:05.453Z,2.30
2023-05-09T05:39:48.263Z,2.58
2023-05-09T05:42:31.150Z,2.95
2023-05-09T05:45:15.015Z,2.70
2023-05-09T05:48:02.512Z,2.60
2023-05-09T05:50:47.038Z,2.70
2023-05-09T05:53:33.188Z,3.10
2023-05-09T05:56:16.255Z,2.70
2023-05-09T05:58:59.085Z,3.00
2023-05-09T06:01:41.844Z,2.63
2023-05-09T06:04:24.950Z,2.80
2023-05-09T06:07:07.588Z,2.55
2023-05-09T06:09:51.593Z,2.80
2023-05-09T06:12:34.204Z,2.78
2023-05-09T06:15:17.280Z,2.60
2023-05-09T06:18:03.070Z,2.58
2023-05-09T06:20:45.739Z,2.83
2023-05-09T06:23:28.351Z,3.20
2023-05-09T06:26:14.482Z,2.50
2023-05-09T06:28:57.126Z,2.95
2023-05-09T06:31:40.868Z,2.60
2023-05-09T06:34:23.587Z,2.75
2023-05-09T06:37:06.231Z,2.88
2023-05-09T06:39:50.299Z,2.80
2023-05-09T06:42:35.356Z,2.70
2023-05-09T06:45:18.187Z,2.95
2023-05-09T06:48:02.403Z,3.00
2023-05-09T06:50:45.079Z,2.72
2023-05-09T06:53:27.705Z,2.88
2023-05-09T06:56:10.320Z,2.47
2023-05-09T06:58:54.425Z,2.63
2023-05-09T07:01:37.134Z,2.70
2023-05-09T07:04:19.805Z,2.80
2023-05-09T07:07:02.437Z,2.97
2023-05-09T07:09:45.053Z,2.85
2023-05-09T07:12:27.667Z,2.75
2023-05-09T07:15:12.199Z,2.58
2023-05-09T07:17:54.921Z,3.20
2023-05-09T07:20:37.596Z,2.70
2023-05-09T07:23:20.213Z,2.70
2023-05-09T07:26:02.836Z,2.58
2023-05-09T07:28:45.426Z,2.40
2023-05-09T07:31:29.520Z,2.65
2023-05-09T07:34:12.179Z,2.63
2023-05-09T07:36:54.792Z,2.50
2023-05-09T07:39:37.444Z,2.53
2023-05-09T07:42:20.082Z,2.85
2023-05-09T07:45:04.446Z,2.50
2023-05-09T07:47:48.510Z,2.38
2023-05-09T07:50:31.475Z,2.80
2023-05-09T07:53:14.160Z,2.40
2023-05-09T07:55:58.414Z,2.72
2023-05-09T07:58:41.040Z,2.35
2023-05-09T08:01:23.740Z,2.70
2023-05-09T08:04:09.096Z,2.33
2023-05-09T08:06:51.901Z,2.67
2023-05-09T08:09:34.520Z,2.60
2023-05-09T08:12:17.171Z,2.10
2023-05-09T08:14:59.849Z,2.85
2023-05-09T08:17:42.515Z,2.40
2023-05-09T08:20:26.525Z,2.72
2023-05-09T08:23:09.437Z,2.28
2023-05-09T08:25:53.771Z,2.30
2023-05-09T08:28:36.438Z,2.40
2023-05-09T08:31:19.161Z,2.47
2023-05-09T08:34:02.043Z,2.47
2023-05-09T08:36:46.985Z,2.25
2023-05-09T08:39:29.662Z,2.55
2023-05-09T08:42:12.564Z,2.30
2023-05-09T08:44:55.459Z,2.75
2023-05-09T08:47:38.783Z,2.10
2023-05-09T08:50:21.692Z,2.10
2023-05-09T08:53:05.884Z,2.13
2023-05-09T08:55:48.544Z,2.60
2023-05-09T08:58:31.699Z,2.10
2023-05-09T09:01:14.999Z,2.78
2023-05-09T09:03:57.716Z,2.10
2023-05-09T09:06:40.751Z,2.05
2023-05-09T09:09:24.987Z,2.30
2023-05-09T09:12:10.047Z,2.47
2023-05-09T09:14:54.053Z,2.30
2023-05-09T09:17:38.676Z,2.30
2023-05-09T09:20:22.777Z,2.05
2023-05-09T09:23:06.047Z,2.25
2023-05-09T09:25:50.051Z,2.30
2023-05-09T09:28:32.892Z,2.22
2023-05-09T09:31:22.343Z,2.65
2023-05-09T09:34:04.994Z,2.13
2023-05-09T09:36:48.418Z,2.30
2023-05-09T09:39:31.048Z,2.30
2023-05-09T09:42:15.460Z,2.08
2023-05-09T09:44:58.338Z,2.03
2023-05-09T09:47:41.125Z,2.28
2023-05-09T09:50:25.423Z,2.03
2023-05-09T09:53:08.092Z,2.20
2023-05-09T09:55:51.168Z,2.05
2023-05-09T09:58:35.137Z,2.22
2023-05-09T10:01:17.969Z,1.85
2023-05-09T10:04:03.869Z,2.03
2023-05-09T10:06:53.006Z,2.25
2023-05-09T10:09:37.796Z,2.03
2023-05-09T10:12:22.991Z,1.90
2023-05-09T10:15:08.425Z,2.30
2023-05-09T10:17:52.091Z,1.92
2023-05-09T10:20:35.473Z,2.08
2023-05-09T10:23:18.641Z,2.00
2023-05-09T10:26:06.674Z,1.88
2023-05-09T10:28:50.175Z,1.85
2023-05-09T10:31:35.912Z,1.95
2023-05-09T10:34:20.645Z,2.40
2023-05-09T10:37:03.715Z,2.05
2023-05-09T10:39:47.514Z,2.15
2023-05-09T10:42:30.628Z,2.17
2023-05-09T10:45:14.034Z,2.13
2023-05-09T10:47:59.029Z,2.13
2023-05-09T10:50:42.587Z,2.10
2023-05-09T10:53:26.243Z,2.10
2023-05-09T10:56:09.042Z,2.00
2023-05-09T10:58:51.710Z,2.10
2023-05-09T11:01:37.128Z,1.90
2023-05-09T11:04:21.392Z,1.75
2023-05-09T11:07:03.974Z,1.70
2023-05-09T11:09:46.632Z,1.50
2023-05-09T11:12:29.248Z,2.05
2023-05-09T11:15:12.519Z,2.03
2023-05-09T11:18:06.407Z,2.00
2023-05-09T11:20:51.397Z,1.75
2023-05-09T11:23:34.073Z,2.10
2023-05-09T11:26:17.456Z,1.75
2023-05-09T11:29:00.605Z,1.73
2023-05-09T11:31:58.145Z,1.92
2023-05-09T11:34:41.973Z,1.75
2023-05-09T11:37:32.242Z,2.08
2023-05-09T11:40:17.194Z,1.60
2023-05-09T11:43:00.595Z,1.70
2023-05-09T11:45:44.170Z,2.10
2023-05-09T11:48:26.790Z,2.28
2023-05-09T11:51:17.369Z,1.65
2023-05-09T11:54:01.353Z,1.85
2023-05-09T11:56:44.159Z,2.10
2023-05-09T11:59:26.796Z,1.73
2023-05-09T12:02:09.773Z,1.58
2023-05-09T12:04:52.479Z,1.70
2023-05-09T12:07:35.539Z,1.50
2023-05-09T12:10:21.082Z,1.67
2023-05-09T12:13:03.931Z,1.83
2023-05-09T12:15:46.585Z,1.80
2023-05-09T12:18:29.219Z,1.85
2023-05-09T12:21:12.160Z,1.70
2023-05-09T12:23:56.699Z,1.60
2023-05-09T12:26:41.390Z,1.75
2023-05-09T12:29:24.811Z,1.70
2023-05-09T12:32:07.452Z,1.80
2023-05-09T12:34:51.509Z,1.95
2023-05-09T12:37:34.106Z,1.80
2023-05-09T12:40:16.916Z,1.70
2023-05-09T12:43:02.926Z,1.70
2023-05-09T12:45:45.594Z,1.83
2023-05-09T12:48:28.423Z,1.73
2023-05-09T12:51:11.188Z,1.90
2023-05-09T12:53:54.037Z,2.00
2023-05-09T12:56:36.935Z,1.95
2023-05-09T12:59:24.397Z,1.80
2023-05-09T13:02:08.388Z,1.70
2023-05-09T13:04:51.065Z,1.85
2023-05-09T13:07:39.519Z,1.75
2023-05-09T13:10:27.325Z,1.83
2023-05-09T13:13:16.224Z,1.70
2023-05-09T13:16:01.603Z,2.03
2023-05-09T13:18:44.271Z,1.98
2023-05-09T13:21:26.965Z,2.00
2023-05-09T13:24:09.622Z,1.90
2023-05-09T13:26:52.216Z,1.65
2023-05-09T13:29:34.858Z,1.90
2023-05-09T13:32:18.864Z,1.90
2023-05-09T13:35:01.527Z,1.70
2023-05-09T13:37:44.419Z,1.50
2023-05-09T13:40:27.137Z,1.70
2023-05-09T13:43:09.849Z,1.60
2023-05-09T13:45:53.825Z,2.00
2023-05-09T13:48:37.872Z,2.08
2023-05-09T13:51:21.919Z,2.03
2023-05-09T13:54:08.499Z,2.00
2023-05-09T13:56:51.721Z,2.08
2023-05-09T13:59:34.572Z,1.92
2023-05-09T14:02:17.232Z,2.10
2023-05-09T14:05:02.883Z,1.88
2023-05-09T14:07:46.016Z,2.15
2023-05-09T14:10:29.024Z,1.73
2023-05-09T14:13:12.504Z,1.80
2023-05-09T14:15:57.206Z,1.95
2023-05-09T14:18:39.929Z,1.90
2023-05-09T14:21:23.961Z,1.90
2023-05-09T14:24:07.728Z,1.73
2023-05-09T14:26:50.639Z,1.67
2023-05-09T14:29:33.374Z,1.60
2023-05-09T14:32:17.214Z,1.98
2023-05-09T14:34:59.882Z,1.63
2023-05-09T14:37:43.990Z,1.60
2023-05-09T14:40:31.617Z,1.67
2023-05-09T14:43:14.289Z,1.88
2023-05-09T14:45:57.137Z,1.90
2023-05-09T14:48:39.749Z,1.50
2023-05-09T14:51:22.376Z,2.08
2023-05-09T14:54:06.534Z,1.90
2023-05-09T14:56:49.330Z,1.85
2023-05-09T14:59:32.131Z,1.58
2023-05-09T15:02:14.948Z,1.90
2023-05-09T15:04:57.540Z,1.75
2023-05-09T15:07:40.169Z,1.73
2023-05-09T15:10:24.455Z,1.80
2023-05-09T15:13:07.206Z,1.67
2023-05-09T15:15:50.112Z,1.60
2023-05-09T15:18:33.960Z,1.70
2023-05-09T15:21:16.578Z,1.80
2023-05-09T15:23:59.681Z,1.55
2023-05-09T15:26:47.040Z,1.50
2023-05-09T15:29:29.955Z,1.60
2023-05-09T15:32:12.560Z,1.33
2023-05-09T15:34:55.295Z,1.45
2023-05-09T15:37:38.397Z,1.50
2023-05-09T15:40:21.196Z,1.48
2023-05-09T15:43:08.210Z,1.25
2023-05-09T15:45:53.925Z,1.65
2023-05-09T15:48:36.789Z,1.90
2023-05-09T15:51:19.483Z,1.60
2023-05-09T15:54:02.179Z,1.38
2023-05-09T15:56:44.875Z,1.38
2023-05-09T15:59:29.017Z,1.70
2023-05-09T16:02:12.331Z,1.60
2023-05-09T16:04:55.043Z,1.38
2023-05-09T16:07:37.680Z,1.40
2023-05-09T16:10:20.554Z,1.50
2023-05-09T16:13:03.269Z,1.52
2023-05-09T16:15:49.987Z,1.38
2023-05-09T16:18:32.823Z,1.50
2023-05-09T16:21:15.606Z,1.40
2023-05-09T16:23:58.471Z,1.30
2023-05-09T16:26:41.240Z,1.38
2023-05-09T16:29:23.990Z,1.40
2023-05-09T16:32:08.800Z,1.55
2023-05-09T16:34:51.783Z,1.40
2023-05-09T16:37:35.643Z,1.10
2023-05-09T16:40:19.486Z,1.23
2023-05-09T16:43:02.257Z,1.50
2023-05-09T16:45:44.998Z,1.38
2023-05-09T16:48:29.335Z,1.33
2023-05-09T16:51:12.070Z,1.30
2023-05-09T16:53:55.217Z,1.35
2023-05-09T16:56:38.182Z,1.58
2023-05-09T16:59:21.842Z,1.52
2023-05-09T17:02:04.604Z,1.40
2023-05-09T17:04:48.738Z,1.55
2023-05-09T17:07:31.959Z,1.40
2023-05-09T17:10:14.965Z,1.23
2023-05-09T17:12:58.245Z,1.15
2023-05-09T17:15:43.081Z,3.00
2023-05-09T17:18:36.991Z,1.33
2023-05-09T17:21:22.925Z,1.40
2023-05-09T17:24:05.716Z,1.30
2023-05-09T17:26:48.815Z,1.35
2023-05-09T17:29:31.459Z,1.50
2023-05-09T17:32:15.597Z,1.27
2023-05-09T17:34:58.429Z,1.40
2023-05-09T17:37:42.458Z,1.33
2023-05-09T17:40:25.477Z,1.10
2023-05-09T17:43:08.309Z,1.20
2023-05-09T17:45:51.746Z,1.10
2023-05-09T17:48:34.459Z,0.93
2023-05-09T17:51:17.567Z,1.00
2023-05-09T17:54:01.702Z,1.13
2023-05-09T17:56:44.846Z,1.08
2023-05-09T17:59:27.941Z,1.23
2023-05-09T18:02:10.962Z,1.27
2023-05-09T18:04:53.787Z,1.27
2023-05-09T18:07:36.521Z,1.10
2023-05-09T18:10:20.976Z,1.05
2023-05-09T18:13:03.815Z,1.10
2023-05-09T18:15:46.633Z,1.00
2023-05-09T18:18:31.061Z,1.13
2023-05-09T18:21:16.684Z,7.72
2023-05-09T18:23:59.758Z,1.25
2023-05-09T18:26:43.803Z,1.30
2023-05-09T18:29:26.469Z,1.20
2023-05-09T18:32:09.101Z,1.13
2023-05-09T18:34:51.979Z,1.15
2023-05-09T18:37:34.749Z,1.33
2023-05-09T18:40:17.721Z,1.08
2023-05-09T18:43:01.942Z,1.10
2023-05-09T18:45:47.891Z,1.40
2023-05-09T18:48:31.074Z,1.10
2023-05-09T18:51:13.781Z,1.00
2023-05-09T18:53:56.736Z,1.30
2023-05-09T18:56:41.739Z,1.30
2023-05-09T18:59:25.815Z,1.20
2023-05-09T19:02:09.028Z,1.20
2023-05-09T19:04:52.423Z,1.30
2023-05-09T19:07:35.316Z,1.13
2023-05-09T19:10:20.034Z,1.05
2023-05-09T19:13:03.019Z,1.20
2023-05-09T19:15:47.918Z,1.23
2023-05-09T19:18:30.726Z,1.20
2023-05-09T19:21:15.527Z,1.30
2023-05-09T19:23:58.173Z,1.20
2023-05-09T19:26:40.807Z,1.10
2023-05-09T19:29:23.481Z,0.90
2023-05-09T19:32:08.261Z,1.20
2023-05-09T19:34:50.927Z,1.40
2023-05-09T19:37:33.631Z,1.20
2023-05-09T19:40:16.713Z,0.90
2023-05-09T19:42:59.805Z,1.27
2023-05-09T19:45:42.635Z,1.00
2023-05-09T19:48:26.704Z,1.20
2023-05-09T19:51:12.264Z,1.23
2023-05-09T19:53:55.398Z,1.48
2023-05-09T19:56:38.074Z,1.20
2023-05-09T19:59:24.004Z,1.60
2023-05-09T20:02:06.691Z,1.25
2023-05-09T20:04:51.018Z,1.48
2023-05-09T20:07:33.726Z,1.60
2023-05-09T20:10:16.730Z,1.30
2023-05-09T20:13:00.929Z,1.30
2023-05-09T20:15:44.065Z,1.30
2023-05-09T20:18:26.811Z,1.38
2023-05-09T20:21:11.900Z,1.50
2023-05-09T20:23:54.590Z,1.48
2023-05-09T20:26:37.240Z,1.20
2023-05-09T20:29:19.980Z,1.30
2023-05-09T20:32:02.762Z,1.50
2023-05-09T20:34:45.530Z,1.48
2023-05-09T20:37:29.513Z,1.63
2023-05-09T20:40:13.818Z,1.35
2023-05-09T20:42:56.692Z,1.60
2023-05-09T20:45:39.887Z,1.30
2023-05-09T20:48:23.515Z,1.60
2023-05-09T20:51:06.235Z,1.60
2023-05-09T20:53:50.187Z,1.50
2023-05-09T20:56:35.556Z,1.40
2023-05-09T20:59:18.315Z,1.65
2023-05-09T21:02:01.044Z,1.50
2023-05-09T21:04:43.732Z,1.50
2023-05-09T21:07:26.409Z,1.50
2023-05-09T21:10:11.628Z,1.73
2023-05-09T21:12:54.326Z,1.77
2023-05-09T21:15:37.019Z,1.50
2023-05-09T21:18:19.957Z,1.48
2023-05-09T21:21:03.048Z,1.52
2023-05-09T21:23:45.670Z,1.50
2023-05-09T21:26:29.675Z,1.60
2023-05-09T21:29:12.301Z,1.85
2023-05-09T21:31:55.001Z,1.50
2023-05-09T21:34:37.635Z,1.50
2023-05-09T21:37:20.344Z,1.60
2023-05-09T21:40:05.525Z,1.83
2023-05-09T21:42:49.880Z,1.50
2023-05-09T21:45:32.505Z,1.45
2023-05-09T21:48:15.224Z,1.55
2023-05-09T21:50:58.235Z,1.52
2023-05-09T21:53:40.933Z,1.73
2023-05-09T21:56:23.831Z,1.80
2023-05-09T21:59:08.026Z,1.80
2023-05-09T22:01:50.803Z,1.80
2023-05-09T22:04:33.469Z,1.65
2023-05-09T22:07:16.147Z,1.80
2023-05-09T22:09:58.811Z,1.90
2023-05-09T22:12:41.454Z,1.80
2023-05-09T22:15:25.938Z,1.80
2023-05-09T22:18:08.761Z,1.95
2023-05-09T22:20:51.449Z,1.80
2023-05-09T22:23:34.131Z,1.70
2023-05-09T22:26:16.775Z,2.17
2023-05-09T22:28:59.563Z,1.90
2023-05-09T22:31:43.725Z,2.20
2023-05-09T22:34:26.420Z,1.67
2023-05-09T22:37:09.890Z,1.70
2023-05-09T22:39:52.544Z,1.98
2023-05-09T22:42:35.206Z,1.90
2023-05-09T22:45:17.820Z,1.90
2023-05-09T22:48:01.883Z,1.95
2023-05-09T22:50:44.517Z,1.70
2023-05-09T22:53:28.128Z,2.20
2023-05-09T22:56:10.874Z,1.98
2023-05-09T22:58:53.519Z,2.17
2023-05-09T23:01:36.290Z,1.85
2023-05-09T23:04:20.600Z,1.88
2023-05-09T23:07:03.261Z,2.00
2023-05-09T23:09:45.925Z,2.10
2023-05-09T23:12:28.950Z,1.90
2023-05-09T23:15:11.729Z,2.20
2023-05-09T23:17:54.438Z,2.10
2023-05-09T23:20:38.426Z,1.88
2023-05-09T23:23:21.383Z,2.08
2023-05-09T23:29:40.963Z,2.20
2023-05-09T23:32:23.871Z,2.33
2023-05-09T23:35:07.085Z,1.75
2023-05-09T23:37:51.228Z,2.20
2023-05-09T23:40:33.954Z,2.15
2023-05-09T23:43:16.566Z,2.35
2023-05-09T23:45:59.324Z,2.38
2023-05-09T23:48:41.970Z,2.00
2023-05-09T23:51:24.582Z,2.40
2023-05-09T23:54:08.619Z,2.35
2023-05-09T23:56:51.503Z,2.10
2023-05-09T23:59:34.167Z,2.13
